Time,TemperatureF,DewpointF,PressureIn,WindDirection,WindDirectionDegrees,WindSpeedMPH,WindSpeedGustMPH,Humidity,HourlyPrecipIn,Conditions,Clouds,dailyrainin,SoftwareType,DateUTC
2013-10-04 00:00:00,56.3,53.8,29.99,ENE,60,7.0,10.0,91,0.00,,,0.01,meteohub,2013-10-04 05:00:00,
2013-10-04 00:02:00,56.1,53.6,29.98,NE,54,12.0,12.0,91,0.00,,,0.01,meteohub,2013-10-04 05:02:00,
2013-10-04 00:05:00,56.1,53.6,29.98,NE,56,3.0,12.0,91,0.00,,,0.00,meteohub,2013-10-04 05:05:00,
2013-10-04 00:08:00,55.9,53.4,29.98,NE,51,4.0,12.0,91,0.00,,,0.00,meteohub,2013-10-04 05:08:00,
2013-10-04 00:09:00,55.9,53.4,29.98,NE,51,2.0,12.0,91,0.00,,,0.00,meteohub,2013-10-04 05:09:00,
2013-10-04 00:13:00,55.9,53.4,29.99,ENE,67,9.0,12.0,91,0.00,,,0.00,meteohub,2013-10-04 05:13:00,
2013-10-04 00:14:00,55.9,53.4,29.98,ENE,71,4.0,12.0,91,0.00,,,0.00,meteohub,2013-10-04 05:14:00,
2013-10-04 00:16:00,55.9,53.4,29.98,East,79,0.0,12.0,91,0.00,,,0.00,meteohub,2013-10-04 05:16:00,
2013-10-04 00:18:00,55.9,53.4,29.98,ENE,67,6.0,12.0,91,0.00,,,0.00,meteohub,2013-10-04 05:18:00,
2013-10-04 00:24:00,55.8,52.9,29.98,ENE,71,4.0,12.0,90,0.00,,,0.00,meteohub,2013-10-04 05:24:00,
2013-10-04 00:27:00,55.8,52.9,29.98,ENE,62,2.0,12.0,90,0.00,,,0.00,meteohub,2013-10-04 05:27:00,
2013-10-04 00:32:00,55.6,53.1,29.98,ENE,67,0.0,11.0,91,0.00,,,0.00,meteohub,2013-10-04 05:32:00,
2013-10-04 00:37:00,55.6,53.1,29.98,ENE,75,5.0,11.0,91,0.00,,,0.00,meteohub,2013-10-04 05:37:00,
2013-10-04 00:42:00,55.6,53.1,29.98,ENE,71,0.0,10.0,91,0.00,,,0.00,meteohub,2013-10-04 05:42:00,
2013-10-04 00:47:00,55.6,53.1,29.98,ENE,72,0.0,10.0,91,0.00,,,0.00,meteohub,2013-10-04 05:47:00,
2013-10-04 00:52:00,55.4,52.9,29.99,ENE,64,0.0,9.0,91,0.00,,,0.00,meteohub,2013-10-04 05:52:00,
2013-10-04 00:57:00,55.2,52.7,29.99,East,85,5.0,7.0,91,0.00,,,0.00,meteohub,2013-10-04 05:57:00,
2013-10-04 01:02:00,55.2,52.7,29.99,NE,49,2.0,7.0,91,0.00,,,0.00,meteohub,2013-10-04 06:02:00,
2013-10-04 01:07:00,55.2,52.7,29.99,ENE,68,0.0,11.0,91,0.00,,,0.00,meteohub,2013-10-04 06:07:00,
2013-10-04 01:12:00,55.2,52.7,29.98,ENE,64,2.0,11.0,91,0.00,,,0.00,meteohub,2013-10-04 06:12:00,
2013-10-04 01:18:00,55.2,52.7,29.98,NE,50,0.0,12.0,91,0.00,,,0.00,meteohub,2013-10-04 06:18:00,
2013-10-04 01:22:00,55.2,52.7,29.98,East,80,4.0,12.0,91,0.00,,,0.00,meteohub,2013-10-04 06:22:00,
2013-10-04 01:27:00,55.2,52.7,29.99,East,86,1.0,12.0,91,0.00,,,0.00,meteohub,2013-10-04 06:27:00,
2013-10-04 01:33:00,55.2,52.7,29.99,ESE,104,4.0,11.0,91,0.00,,,0.00,meteohub,2013-10-04 06:33:00,
2013-10-04 01:38:00,55.2,52.7,29.98,ENE,69,0.0,11.0,91,0.00,,,0.00,meteohub,2013-10-04 06:38:00,
2013-10-04 01:43:00,55.2,52.7,29.98,ENE,78,3.0,10.0,91,0.00,,,0.00,meteohub,2013-10-04 06:43:00,
2013-10-04 01:48:00,55.2,52.7,29.99,ENE,71,0.0,12.0,91,0.01,,,0.01,meteohub,2013-10-04 06:48:00,
2013-10-04 01:53:00,55.2,52.7,29.99,ENE,76,4.0,13.0,91,0.01,,,0.01,meteohub,2013-10-04 06:53:00,
2013-10-04 01:58:00,55.2,52.7,29.99,ENE,77,5.0,13.0,91,0.01,,,0.01,meteohub,2013-10-04 06:58:00,
2013-10-04 02:03:00,55.2,52.7,29.99,East,84,0.0,13.0,91,0.01,,,0.01,meteohub,2013-10-04 07:03:00,
2013-10-04 02:08:00,55.2,52.7,29.99,East,99,4.0,13.0,91,0.01,,,0.01,meteohub,2013-10-04 07:08:00,
2013-10-04 02:13:00,55.2,52.7,30.00,ENE,78,7.0,12.0,91,0.01,,,0.01,meteohub,2013-10-04 07:13:00,
2013-10-04 02:18:00,55.0,52.5,30.00,ENE,68,0.0,12.0,91,0.01,,,0.01,meteohub,2013-10-04 07:18:00,
2013-10-04 02:23:00,55.0,52.5,30.00,East,84,3.0,10.0,91,0.01,,,0.01,meteohub,2013-10-04 07:23:00,
2013-10-04 02:28:00,55.0,52.2,30.01,ENE,65,8.0,8.0,90,0.01,,,0.01,meteohub,2013-10-04 07:28:00,
2013-10-04 02:33:00,55.0,52.2,30.00,ENE,65,4.0,9.0,90,0.01,,,0.01,meteohub,2013-10-04 07:33:00,
2013-10-04 02:38:00,55.0,52.2,29.99,East,83,0.0,9.0,90,0.01,,,0.01,meteohub,2013-10-04 07:38:00,
2013-10-04 02:43:00,54.9,52.3,30.00,East,93,4.0,9.0,91,0.01,,,0.01,meteohub,2013-10-04 07:43:00,
2013-10-04 02:48:00,54.9,52.3,29.99,ENE,66,1.0,9.0,91,0.00,,,0.01,meteohub,2013-10-04 07:48:00,
2013-10-04 02:53:00,54.9,52.3,29.99,East,79,0.0,9.0,91,0.00,,,0.01,meteohub,2013-10-04 07:53:00,
2013-10-04 02:58:00,54.9,52.3,29.99,East,96,9.0,9.0,91,0.00,,,0.01,meteohub,2013-10-04 07:58:00,
2013-10-04 03:03:00,54.9,52.3,29.99,East,83,3.0,11.0,91,0.00,,,0.01,meteohub,2013-10-04 08:03:00,
2013-10-04 03:08:00,54.7,52.2,29.99,ENE,72,5.0,11.0,91,0.00,,,0.01,meteohub,2013-10-04 08:08:00,
2013-10-04 03:13:00,54.7,52.2,29.99,ENE,58,4.0,11.0,91,0.00,,,0.01,meteohub,2013-10-04 08:13:00,
2013-10-04 03:18:00,54.7,52.2,29.99,East,81,2.0,7.0,91,0.00,,,0.01,meteohub,2013-10-04 08:18:00,
2013-10-04 03:23:00,54.7,52.2,29.99,ENE,71,3.0,7.0,91,0.00,,,0.01,meteohub,2013-10-04 08:23:00,
2013-10-04 03:28:00,54.9,52.3,29.99,ENE,74,0.0,7.0,91,0.00,,,0.01,meteohub,2013-10-04 08:28:00,
2013-10-04 03:33:00,54.9,52.3,29.99,ENE,74,2.0,7.0,91,0.00,,,0.01,meteohub,2013-10-04 08:33:00,
2013-10-04 03:38:00,54.9,52.3,29.99,ENE,74,5.0,12.0,91,0.00,,,0.01,meteohub,2013-10-04 08:38:00,
2013-10-04 03:43:00,54.9,52.3,30.00,East,98,0.0,12.0,91,0.00,,,0.01,meteohub,2013-10-04 08:43:00,
2013-10-04 03:48:00,54.9,52.3,30.00,ESE,109,6.0,12.0,91,0.00,,,0.01,meteohub,2013-10-04 08:48:00,
2013-10-04 03:53:00,54.9,52.3,30.00,ENE,75,5.0,10.0,91,0.00,,,0.01,meteohub,2013-10-04 08:53:00,
2013-10-04 03:58:00,54.9,52.3,30.00,NE,55,1.0,10.0,91,0.00,,,0.01,meteohub,2013-10-04 08:58:00,
2013-10-04 04:03:00,54.9,52.3,30.00,ENE,72,3.0,10.0,91,0.00,,,0.01,meteohub,2013-10-04 09:03:00,
2013-10-04 04:08:00,54.9,52.3,30.00,East,84,0.0,10.0,91,0.00,,,0.01,meteohub,2013-10-04 09:08:00,
2013-10-04 04:13:00,55.0,52.5,30.00,East,82,0.0,10.0,91,0.00,,,0.01,meteohub,2013-10-04 09:13:00,
2013-10-04 04:18:00,55.0,52.5,30.00,East,99,3.0,7.0,91,0.00,,,0.01,meteohub,2013-10-04 09:18:00,
2013-10-04 04:23:00,54.9,52.3,30.00,ESE,108,4.0,7.0,91,0.00,,,0.01,meteohub,2013-10-04 09:23:00,
2013-10-04 04:28:00,54.9,52.3,30.00,NE,51,1.0,7.0,91,0.00,,,0.01,meteohub,2013-10-04 09:28:00,
2013-10-04 04:33:00,54.9,52.3,29.99,East,81,3.0,9.0,91,0.00,,,0.01,meteohub,2013-10-04 09:33:00,
2013-10-04 04:38:00,54.9,52.3,30.00,East,86,2.0,9.0,91,0.00,,,0.01,meteohub,2013-10-04 09:38:00,
2013-10-04 04:43:00,55.0,52.5,30.00,ENE,65,2.0,9.0,91,0.00,,,0.01,meteohub,2013-10-04 09:43:00,
2013-10-04 04:48:00,55.0,52.5,30.00,ENE,60,3.0,7.0,91,0.00,,,0.01,meteohub,2013-10-04 09:48:00,
2013-10-04 04:54:00,55.0,52.5,30.00,East,94,2.0,10.0,91,0.00,,,0.01,meteohub,2013-10-04 09:54:00,
2013-10-04 04:59:00,55.0,52.5,30.00,East,80,4.0,10.0,91,0.00,,,0.01,meteohub,2013-10-04 09:59:00,
2013-10-04 05:04:00,55.0,52.5,30.00,ENE,68,0.0,10.0,91,0.00,,,0.01,meteohub,2013-10-04 10:04:00,
2013-10-04 05:09:00,55.0,52.5,29.99,ENE,65,4.0,8.0,91,0.00,,,0.01,meteohub,2013-10-04 10:09:00,
2013-10-04 05:14:00,55.0,52.5,29.99,ENE,75,5.0,10.0,91,0.00,,,0.01,meteohub,2013-10-04 10:14:00,
2013-10-04 05:19:00,55.0,52.5,30.00,NE,54,0.0,12.0,91,0.00,,,0.01,meteohub,2013-10-04 10:19:00,
2013-10-04 05:24:00,55.0,52.5,30.00,ENE,77,2.0,12.0,91,0.00,,,0.01,meteohub,2013-10-04 10:24:00,
2013-10-04 05:29:00,55.0,52.5,30.00,ENE,70,5.0,12.0,91,0.00,,,0.01,meteohub,2013-10-04 10:29:00,
2013-10-04 05:34:00,55.2,52.7,30.00,East,92,6.0,12.0,91,0.00,,,0.01,meteohub,2013-10-04 10:34:00,
2013-10-04 05:39:00,55.2,52.7,29.99,East,92,3.0,10.0,91,0.00,,,0.01,meteohub,2013-10-04 10:39:00,
2013-10-04 05:44:00,55.2,52.7,30.00,East,92,4.0,10.0,91,0.00,,,0.01,meteohub,2013-10-04 10:44:00,
2013-10-04 05:49:00,55.2,52.7,30.00,ESE,111,1.0,10.0,91,0.00,,,0.01,meteohub,2013-10-04 10:49:00,
2013-10-04 05:54:00,55.4,52.9,30.00,East,84,3.0,8.0,91,0.00,,,0.01,meteohub,2013-10-04 10:54:00,
2013-10-04 05:59:00,55.4,52.9,30.00,ENE,76,6.0,8.0,91,0.00,,,0.01,meteohub,2013-10-04 10:59:00,
2013-10-04 06:04:00,55.6,53.1,30.00,ENE,66,3.0,9.0,91,0.00,,,0.01,meteohub,2013-10-04 11:04:00,
2013-10-04 06:09:00,55.6,53.1,30.01,ESE,107,0.0,10.0,91,0.00,,,0.01,meteohub,2013-10-04 11:09:00,
2013-10-04 06:14:00,55.8,53.2,30.00,East,88,0.0,10.0,91,0.00,,,0.01,meteohub,2013-10-04 11:14:00,
2013-10-04 06:19:00,55.8,53.2,30.00,East,86,0.0,10.0,91,0.00,,,0.01,meteohub,2013-10-04 11:19:00,
2013-10-04 06:24:00,55.8,53.2,30.00,SE,125,5.0,10.0,91,0.00,,,0.01,meteohub,2013-10-04 11:24:00,
2013-10-04 06:29:00,55.8,53.2,30.00,East,80,7.0,10.0,91,0.00,,,0.01,meteohub,2013-10-04 11:29:00,
2013-10-04 06:34:00,55.9,53.4,30.00,SE,124,0.0,10.0,91,0.00,,,0.01,meteohub,2013-10-04 11:34:00,
2013-10-04 06:39:00,55.9,53.4,30.01,ESE,115,2.0,9.0,91,0.00,,,0.01,meteohub,2013-10-04 11:39:00,
2013-10-04 06:44:00,55.9,53.4,30.01,ESE,113,3.0,10.0,91,0.00,,,0.01,meteohub,2013-10-04 11:44:00,
2013-10-04 06:49:00,55.9,53.4,30.01,East,92,3.0,10.0,91,0.00,,,0.01,meteohub,2013-10-04 11:49:00,
2013-10-04 06:54:00,56.1,53.6,30.01,ESE,108,3.0,10.0,91,0.00,,,0.01,meteohub,2013-10-04 11:54:00,
2013-10-04 06:59:00,56.1,53.6,30.01,ESE,105,3.0,11.0,91,0.00,,,0.01,meteohub,2013-10-04 11:59:00,
2013-10-04 07:04:00,56.1,53.6,30.01,ENE,65,3.0,11.0,91,0.00,,,0.01,meteohub,2013-10-04 12:04:00,
2013-10-04 07:09:00,56.1,53.6,30.01,ENE,67,0.0,11.0,91,0.00,,,0.01,meteohub,2013-10-04 12:09:00,
2013-10-04 07:14:00,56.1,53.6,30.02,ENE,69,1.0,7.0,91,0.00,,,0.01,meteohub,2013-10-04 12:14:00,
2013-10-04 07:20:00,56.3,53.8,30.02,East,87,1.0,5.0,91,0.00,,,0.01,meteohub,2013-10-04 12:20:00,
2013-10-04 07:25:00,56.3,53.8,30.02,East,96,2.0,7.0,91,0.00,,,0.01,meteohub,2013-10-04 12:25:00,
2013-10-04 07:30:00,56.3,53.8,30.01,East,101,3.0,7.0,91,0.00,,,0.01,meteohub,2013-10-04 12:30:00,
2013-10-04 07:35:00,56.3,53.8,30.01,East,99,0.0,7.0,91,0.00,,,0.01,meteohub,2013-10-04 12:35:00,
2013-10-04 07:40:00,56.5,54.0,30.01,ESE,111,3.0,6.0,91,0.00,,,0.01,meteohub,2013-10-04 12:40:00,
2013-10-04 07:45:00,56.5,54.0,30.01,ENE,64,7.0,7.0,91,0.00,,,0.01,meteohub,2013-10-04 12:45:00,
2013-10-04 07:50:00,56.5,54.0,30.01,East,82,2.0,7.0,91,0.00,,,0.01,meteohub,2013-10-04 12:50:00,
2013-10-04 07:55:00,56.5,54.0,30.01,East,93,3.0,7.0,91,0.00,,,0.01,meteohub,2013-10-04 12:55:00,
2013-10-04 08:00:00,56.5,54.0,30.01,East,90,2.0,7.0,91,0.00,,,0.01,meteohub,2013-10-04 13:00:00,
2013-10-04 08:05:00,56.7,54.1,30.01,ENE,68,5.0,12.0,91,0.00,,,0.01,meteohub,2013-10-04 13:05:00,
2013-10-04 08:10:00,56.7,54.1,30.01,East,98,5.0,12.0,91,0.00,,,0.01,meteohub,2013-10-04 13:10:00,
2013-10-04 08:15:00,56.7,54.1,30.00,ENE,78,5.0,11.0,91,0.00,,,0.01,meteohub,2013-10-04 13:15:00,
2013-10-04 08:20:00,56.7,54.1,29.99,ESE,102,3.0,15.0,91,0.00,,,0.01,meteohub,2013-10-04 13:20:00,
2013-10-04 08:25:00,56.7,53.8,29.99,East,98,4.0,15.0,90,0.00,,,0.01,meteohub,2013-10-04 13:25:00,
2013-10-04 08:30:00,56.7,53.8,29.99,ENE,67,6.0,15.0,90,0.00,,,0.01,meteohub,2013-10-04 13:30:00,
2013-10-04 08:35:00,56.7,53.8,29.99,ESE,114,3.0,14.0,90,0.00,,,0.01,meteohub,2013-10-04 13:35:00,
2013-10-04 08:40:00,56.7,53.8,29.99,NE,54,7.0,14.0,90,0.00,,,0.01,meteohub,2013-10-04 13:40:00,
2013-10-04 08:45:00,56.7,53.8,29.99,East,86,2.0,14.0,90,0.00,,,0.01,meteohub,2013-10-04 13:45:00,
2013-10-04 08:50:00,56.7,53.8,29.99,East,83,6.0,14.0,90,0.00,,,0.01,meteohub,2013-10-04 13:50:00,
2013-10-04 08:55:00,56.7,53.8,29.99,NE,55,11.0,14.0,90,0.00,,,0.01,meteohub,2013-10-04 13:55:00,
2013-10-04 09:00:00,56.7,53.8,29.99,ENE,76,5.0,14.0,90,0.00,,,0.01,meteohub,2013-10-04 14:00:00,
2013-10-04 09:05:00,56.7,53.8,29.99,ESE,102,5.0,14.0,90,0.00,,,0.01,meteohub,2013-10-04 14:05:00,
2013-10-04 09:10:00,56.7,53.8,30.00,East,94,5.0,14.0,90,0.00,,,0.01,meteohub,2013-10-04 14:10:00,
2013-10-04 09:15:00,56.7,53.8,30.00,East,98,6.0,13.0,90,0.00,,,0.01,meteohub,2013-10-04 14:15:00,
2013-10-04 09:20:00,56.5,53.6,30.00,East,84,6.0,16.0,90,0.00,,,0.01,meteohub,2013-10-04 14:20:00,
2013-10-04 09:25:00,56.5,53.6,30.00,East,86,7.0,16.0,90,0.00,,,0.01,meteohub,2013-10-04 14:25:00,
2013-10-04 09:30:00,56.3,53.4,30.00,ENE,70,4.0,16.0,90,0.00,,,0.01,meteohub,2013-10-04 14:30:00,
2013-10-04 09:35:00,56.3,53.4,30.00,NE,49,6.0,18.0,90,0.00,,,0.01,meteohub,2013-10-04 14:35:00,
2013-10-04 09:40:00,56.1,53.2,30.00,East,96,7.0,18.0,90,0.00,,,0.01,meteohub,2013-10-04 14:40:00,
2013-10-04 09:45:00,56.1,53.2,30.00,ESE,109,3.0,18.0,90,0.00,,,0.01,meteohub,2013-10-04 14:45:00,
2013-10-04 09:50:00,56.1,53.2,30.00,ENE,72,4.0,14.0,90,0.00,,,0.01,meteohub,2013-10-04 14:50:00,
2013-10-04 09:55:00,56.1,53.2,30.01,East,88,4.0,13.0,90,0.00,,,0.01,meteohub,2013-10-04 14:55:00,
2013-10-04 10:00:00,56.1,53.2,30.01,ESE,102,7.0,13.0,90,0.00,,,0.01,meteohub,2013-10-04 15:00:00,
2013-10-04 10:05:00,56.1,52.9,30.01,ESE,111,6.0,13.0,89,0.00,,,0.01,meteohub,2013-10-04 15:05:00,
2013-10-04 10:10:00,56.3,53.1,30.01,ESE,115,1.0,12.0,89,0.00,,,0.01,meteohub,2013-10-04 15:10:00,
2013-10-04 10:15:00,56.3,53.1,30.01,ENE,77,2.0,13.0,89,0.00,,,0.01,meteohub,2013-10-04 15:15:00,
2013-10-04 10:17:00,56.3,53.1,30.00,ENE,76,0.0,13.0,89,0.00,,,0.01,meteohub,2013-10-04 15:17:00,
2013-10-04 10:22:00,56.3,53.1,30.00,ESE,102,0.0,13.0,89,0.00,,,0.01,meteohub,2013-10-04 15:22:00,
2013-10-04 10:27:00,56.3,53.1,30.01,ESE,123,0.0,13.0,89,0.00,,,0.01,meteohub,2013-10-04 15:27:00,
2013-10-04 10:32:00,56.5,53.2,30.01,SE,127,6.0,13.0,89,0.00,,,0.01,meteohub,2013-10-04 15:32:00,
2013-10-04 10:37:00,56.5,53.2,30.02,ESE,107,5.0,12.0,89,0.00,,,0.01,meteohub,2013-10-04 15:37:00,
2013-10-04 10:42:00,56.5,53.2,30.02,ESE,102,3.0,12.0,89,0.00,,,0.01,meteohub,2013-10-04 15:42:00,
2013-10-04 10:47:00,56.5,53.2,30.02,East,90,2.0,10.0,89,0.00,,,0.01,meteohub,2013-10-04 15:47:00,
2013-10-04 10:52:00,56.5,53.2,30.02,ESE,111,3.0,10.0,89,0.00,,,0.01,meteohub,2013-10-04 15:52:00,
2013-10-04 10:57:00,56.7,53.4,30.02,ESE,105,2.0,10.0,89,0.00,,,0.01,meteohub,2013-10-04 15:57:00,
2013-10-04 11:02:00,56.7,53.4,30.02,ENE,76,12.0,13.0,89,0.00,,,0.01,meteohub,2013-10-04 16:02:00,
2013-10-04 11:07:00,56.7,53.4,30.02,SE,145,10.0,13.0,89,0.00,,,0.01,meteohub,2013-10-04 16:07:00,
2013-10-04 11:12:00,56.7,53.1,30.02,East,92,4.0,13.0,88,0.00,,,0.01,meteohub,2013-10-04 16:12:00,
2013-10-04 11:17:00,56.7,53.1,30.02,East,89,3.0,12.0,88,0.00,,,0.01,meteohub,2013-10-04 16:17:00,
2013-10-04 11:22:00,56.7,53.1,30.02,East,98,11.0,12.0,88,0.00,,,0.01,meteohub,2013-10-04 16:22:00,
2013-10-04 11:27:00,56.7,53.1,30.02,ESE,103,3.0,12.0,88,0.00,,,0.01,meteohub,2013-10-04 16:27:00,
2013-10-04 11:32:00,56.8,53.2,30.02,East,94,6.0,12.0,88,0.00,,,0.01,meteohub,2013-10-04 16:32:00,
2013-10-04 11:37:00,56.8,53.2,30.02,ENE,66,5.0,13.0,88,0.00,,,0.01,meteohub,2013-10-04 16:37:00,
2013-10-04 11:42:00,56.8,53.2,30.02,ESE,104,4.0,13.0,88,0.00,,,0.01,meteohub,2013-10-04 16:42:00,
2013-10-04 11:47:00,56.8,53.2,30.02,East,92,4.0,13.0,88,0.00,,,0.01,meteohub,2013-10-04 16:47:00,
2013-10-04 11:52:00,56.8,53.1,30.02,East,87,11.0,13.0,87,0.00,,,0.01,meteohub,2013-10-04 16:52:00,
2013-10-04 11:57:00,57.0,53.4,30.02,ESE,107,0.0,15.0,88,0.00,,,0.01,meteohub,2013-10-04 16:57:00,
2013-10-04 12:02:00,57.0,53.2,30.03,East,99,4.0,15.0,87,0.00,,,0.01,meteohub,2013-10-04 17:02:00,
2013-10-04 12:07:00,57.0,53.2,30.03,ENE,72,0.0,15.0,87,0.00,,,0.01,meteohub,2013-10-04 17:07:00,
2013-10-04 12:12:00,57.0,53.2,30.03,East,89,5.0,14.0,87,0.00,,,0.01,meteohub,2013-10-04 17:12:00,
2013-10-04 12:17:00,57.2,53.4,30.03,East,98,0.0,14.0,87,0.00,,,0.01,meteohub,2013-10-04 17:17:00,
2013-10-04 12:22:00,57.0,53.2,30.03,ESE,113,3.0,12.0,87,0.00,,,0.01,meteohub,2013-10-04 17:22:00,
2013-10-04 12:27:00,57.2,53.4,30.03,East,81,0.0,11.0,87,0.00,,,0.01,meteohub,2013-10-04 17:27:00,
2013-10-04 12:32:00,57.2,53.4,30.03,East,96,3.0,11.0,87,0.00,,,0.01,meteohub,2013-10-04 17:32:00,
2013-10-04 13:02:00,57.4,53.6,30.02,ESE,111,5.0,13.0,87,0.00,,,0.01,meteohub,2013-10-04 18:02:00,
2013-10-04 13:08:00,57.4,53.6,30.02,ESE,119,5.0,13.0,87,0.00,,,0.01,meteohub,2013-10-04 18:08:00,
2013-10-04 13:13:00,57.6,53.8,30.02,ESE,117,6.0,12.0,87,0.00,,,0.01,meteohub,2013-10-04 18:13:00,
2013-10-04 13:18:00,57.6,53.8,30.01,ESE,110,2.0,15.0,87,0.00,,,0.01,meteohub,2013-10-04 18:18:00,
2013-10-04 13:23:00,57.6,53.8,30.01,SE,129,7.0,15.0,87,0.00,,,0.01,meteohub,2013-10-04 18:23:00,
2013-10-04 13:28:00,57.6,53.8,30.00,NE,51,7.0,15.0,87,0.00,,,0.01,meteohub,2013-10-04 18:28:00,
2013-10-04 13:33:00,57.7,54.0,30.00,ENE,69,5.0,13.0,87,0.00,,,0.01,meteohub,2013-10-04 18:33:00,
2013-10-04 13:38:00,57.7,54.1,30.00,ESE,118,9.0,13.0,88,0.00,,,0.01,meteohub,2013-10-04 18:38:00,
2013-10-04 13:43:00,57.7,54.1,29.99,ESE,117,5.0,14.0,88,0.00,,,0.01,meteohub,2013-10-04 18:43:00,
2013-10-04 13:48:00,57.7,54.1,29.99,East,99,7.0,14.0,88,0.00,,,0.01,meteohub,2013-10-04 18:48:00,
2013-10-04 13:53:00,57.7,54.1,29.99,ENE,67,3.0,14.0,88,0.00,,,0.01,meteohub,2013-10-04 18:53:00,
2013-10-04 13:58:00,57.7,54.1,29.99,East,101,7.0,14.0,88,0.00,,,0.01,meteohub,2013-10-04 18:58:00,
2013-10-04 14:03:00,57.7,54.1,29.98,East,101,1.0,13.0,88,0.00,,,0.01,meteohub,2013-10-04 19:03:00,
2013-10-04 14:08:00,57.7,54.1,29.97,ESE,119,6.0,14.0,88,0.00,,,0.01,meteohub,2013-10-04 19:08:00,
2013-10-04 14:13:00,57.7,54.1,29.97,SE,128,1.0,14.0,88,0.00,,,0.01,meteohub,2013-10-04 19:13:00,
2013-10-04 14:18:00,57.7,54.1,29.97,ESE,119,5.0,14.0,88,0.00,,,0.01,meteohub,2013-10-04 19:18:00,
2013-10-04 14:23:00,57.7,54.1,29.97,ESE,107,5.0,14.0,88,0.00,,,0.01,meteohub,2013-10-04 19:23:00,
2013-10-04 14:28:00,57.7,54.1,29.97,East,92,5.0,14.0,88,0.00,,,0.01,meteohub,2013-10-04 19:28:00,
2013-10-04 14:33:00,57.7,54.1,29.97,ESE,115,0.0,14.0,88,0.00,,,0.01,meteohub,2013-10-04 19:33:00,
2013-10-04 14:38:00,57.7,54.1,29.97,ESE,114,1.0,12.0,88,0.00,,,0.01,meteohub,2013-10-04 19:38:00,
2013-10-04 14:44:00,57.7,54.1,29.97,ESE,110,4.0,12.0,88,0.00,,,0.01,meteohub,2013-10-04 19:44:00,
2013-10-04 14:49:00,57.7,54.1,29.96,East,96,9.0,12.0,88,0.00,,,0.01,meteohub,2013-10-04 19:49:00,
2013-10-04 14:54:00,57.9,54.3,29.95,ESE,107,1.0,13.0,88,0.00,,,0.01,meteohub,2013-10-04 19:54:00,
2013-10-04 14:59:00,57.9,54.3,29.95,ENE,77,1.0,18.0,88,0.00,,,0.01,meteohub,2013-10-04 19:59:00,
2013-10-04 15:04:00,57.9,54.3,29.96,SSW,196,9.0,18.0,88,0.00,,,0.01,meteohub,2013-10-04 20:04:00,
2013-10-04 15:09:00,57.9,54.3,29.97,ESE,113,2.0,18.0,88,0.00,,,0.01,meteohub,2013-10-04 20:09:00,
2013-10-04 15:14:00,58.1,54.5,29.97,ESE,108,6.0,15.0,88,0.00,,,0.01,meteohub,2013-10-04 20:14:00,
2013-10-04 15:19:00,58.1,54.5,29.97,East,96,6.0,15.0,88,0.00,,,0.01,meteohub,2013-10-04 20:19:00,
2013-10-04 15:24:00,57.9,54.3,29.97,SSE,165,4.0,15.0,88,0.00,,,0.01,meteohub,2013-10-04 20:24:00,
2013-10-04 15:29:00,57.9,54.3,29.97,ESE,110,4.0,14.0,88,0.00,,,0.01,meteohub,2013-10-04 20:29:00,
2013-10-04 15:34:00,57.9,54.3,29.97,ESE,109,5.0,13.0,88,0.00,,,0.01,meteohub,2013-10-04 20:34:00,
2013-10-04 15:39:00,57.9,54.3,29.96,ESE,109,1.0,15.0,88,0.00,,,0.01,meteohub,2013-10-04 20:39:00,
2013-10-04 15:44:00,57.9,54.3,29.97,East,101,4.0,15.0,88,0.00,,,0.01,meteohub,2013-10-04 20:44:00,
2013-10-04 15:49:00,57.9,54.3,29.97,ESE,112,3.0,15.0,88,0.00,,,0.01,meteohub,2013-10-04 20:49:00,
2013-10-04 15:54:00,57.9,54.3,29.97,ESE,111,3.0,12.0,88,0.00,,,0.01,meteohub,2013-10-04 20:54:00,
2013-10-04 15:59:00,57.9,54.3,29.98,ESE,117,6.0,12.0,88,0.00,,,0.01,meteohub,2013-10-04 20:59:00,
2013-10-04 16:04:00,57.9,54.3,29.99,SE,136,0.0,15.0,88,0.00,,,0.01,meteohub,2013-10-04 21:04:00,
2013-10-04 16:09:00,57.9,54.3,29.99,SE,132,2.0,15.0,88,0.00,,,0.01,meteohub,2013-10-04 21:09:00,
2013-10-04 16:14:00,57.9,54.3,29.99,East,92,4.0,15.0,88,0.00,,,0.01,meteohub,2013-10-04 21:14:00,
2013-10-04 16:19:00,57.9,54.3,29.99,SSE,147,3.0,14.0,88,0.00,,,0.01,meteohub,2013-10-04 21:19:00,
2013-10-04 16:24:00,57.9,54.3,29.99,East,90,0.0,14.0,88,0.00,,,0.01,meteohub,2013-10-04 21:24:00,
2013-10-04 16:29:00,57.9,54.3,29.98,NE,43,5.0,11.0,88,0.00,,,0.01,meteohub,2013-10-04 21:29:00,
2013-10-04 16:34:00,57.9,54.7,29.98,ESE,105,3.0,13.0,89,0.00,,,0.01,meteohub,2013-10-04 21:34:00,
2013-10-04 16:39:00,57.7,54.5,29.97,SE,130,4.0,13.0,89,0.00,,,0.01,meteohub,2013-10-04 21:39:00,
2013-10-04 16:44:00,57.7,54.5,29.97,ESE,113,1.0,13.0,89,0.00,,,0.01,meteohub,2013-10-04 21:44:00,
2013-10-04 16:49:00,57.9,54.7,29.97,ESE,123,10.0,13.0,89,0.00,,,0.01,meteohub,2013-10-04 21:49:00,
2013-10-04 16:54:00,57.9,54.3,29.97,SE,128,5.0,16.0,88,0.00,,,0.01,meteohub,2013-10-04 21:54:00,
2013-10-04 16:59:00,57.9,54.3,29.97,ESE,114,4.0,16.0,88,0.00,,,0.01,meteohub,2013-10-04 21:59:00,
2013-10-04 17:04:00,57.9,54.3,29.97,SE,144,13.0,16.0,88,0.00,,,0.01,meteohub,2013-10-04 22:04:00,
2013-10-04 17:09:00,57.9,54.3,29.97,SE,142,3.0,16.0,88,0.00,,,0.01,meteohub,2013-10-04 22:09:00,
2013-10-04 17:14:00,58.1,54.5,29.97,East,80,5.0,19.0,88,0.00,,,0.01,meteohub,2013-10-04 22:14:00,
2013-10-04 17:19:00,58.1,54.5,29.96,SE,128,2.0,19.0,88,0.00,,,0.01,meteohub,2013-10-04 22:19:00,
2013-10-04 17:25:00,58.1,54.5,29.96,ESE,110,3.0,19.0,88,0.00,,,0.01,meteohub,2013-10-04 22:25:00,
2013-10-04 17:30:00,57.9,54.3,29.96,ESE,108,0.0,16.0,88,0.00,,,0.01,meteohub,2013-10-04 22:30:00,
2013-10-04 17:35:00,57.9,54.3,29.96,East,101,3.0,16.0,88,0.00,,,0.01,meteohub,2013-10-04 22:35:00,
2013-10-04 17:40:00,57.9,54.3,29.95,East,90,7.0,15.0,88,0.00,,,0.01,meteohub,2013-10-04 22:40:00,
2013-10-04 17:45:00,57.9,54.3,29.95,East,94,0.0,15.0,88,0.00,,,0.01,meteohub,2013-10-04 22:45:00,
2013-10-04 17:50:00,57.9,54.3,29.95,East,99,3.0,19.0,88,0.00,,,0.01,meteohub,2013-10-04 22:50:00,
2013-10-04 17:55:00,57.9,54.3,29.94,East,100,4.0,19.0,88,0.00,,,0.01,meteohub,2013-10-04 22:55:00,
2013-10-04 18:00:00,57.9,54.3,29.95,ESE,102,4.0,13.0,88,0.00,,,0.01,meteohub,2013-10-04 23:00:00,
2013-10-04 18:05:00,57.9,54.3,29.95,East,82,7.0,13.0,88,0.00,,,0.01,meteohub,2013-10-04 23:05:00,
2013-10-04 18:10:00,57.9,54.3,29.95,ESE,111,4.0,14.0,88,0.00,,,0.01,meteohub,2013-10-04 23:10:00,
2013-10-04 18:15:00,57.9,54.3,29.95,East,94,2.0,14.0,88,0.00,,,0.01,meteohub,2013-10-04 23:15:00,
2013-10-04 18:20:00,58.1,54.5,29.95,SE,134,11.0,14.0,88,0.00,,,0.01,meteohub,2013-10-04 23:20:00,
2013-10-04 18:25:00,58.1,54.5,29.94,ENE,61,1.0,15.0,88,0.00,,,0.01,meteohub,2013-10-04 23:25:00,
2013-10-04 18:30:00,57.9,54.3,29.94,ESE,117,0.0,15.0,88,0.00,,,0.01,meteohub,2013-10-04 23:30:00,
2013-10-04 18:35:00,57.9,54.3,29.94,SE,142,3.0,12.0,88,0.00,,,0.01,meteohub,2013-10-04 23:35:00,
2013-10-04 18:40:00,57.9,54.3,29.94,SSE,160,7.0,12.0,88,0.00,,,0.01,meteohub,2013-10-04 23:40:00,
2013-10-04 18:45:00,57.9,54.3,29.94,SE,128,7.0,13.0,88,0.00,,,0.01,meteohub,2013-10-04 23:45:00,
2013-10-04 18:50:00,57.9,54.7,29.95,ESE,122,4.0,13.0,89,0.00,,,0.01,meteohub,2013-10-04 23:50:00,
2013-10-04 18:55:00,57.9,54.7,29.95,ESE,105,3.0,13.0,89,0.00,,,0.01,meteohub,2013-10-04 23:55:00,
2013-10-04 19:00:00,57.9,54.7,29.96,East,94,10.0,16.0,89,0.00,,,0.01,meteohub,2013-10-05 00:00:00,
2013-10-04 19:05:00,57.9,54.7,29.96,ESE,117,5.0,16.0,89,0.00,,,0.01,meteohub,2013-10-05 00:05:00,
2013-10-04 19:10:00,57.9,54.7,29.95,SE,128,4.0,16.0,89,0.00,,,0.01,meteohub,2013-10-05 00:10:00,
2013-10-04 19:15:00,57.9,54.7,29.96,ESE,118,3.0,15.0,89,0.00,,,0.01,meteohub,2013-10-05 00:15:00,
2013-10-04 19:20:00,57.9,54.7,29.96,ESE,121,4.0,13.0,89,0.00,,,0.01,meteohub,2013-10-05 00:20:00,
2013-10-04 19:25:00,57.9,54.7,29.97,East,100,3.0,14.0,89,0.00,,,0.01,meteohub,2013-10-05 00:25:00,
2013-10-04 19:30:00,57.9,54.7,29.96,East,91,6.0,15.0,89,0.00,,,0.01,meteohub,2013-10-05 00:30:00,
2013-10-04 19:35:00,57.9,54.7,29.96,NE,44,10.0,15.0,89,0.00,,,0.01,meteohub,2013-10-05 00:35:00,
2013-10-04 19:40:00,57.9,54.7,29.96,ESE,123,4.0,15.0,89,0.00,,,0.01,meteohub,2013-10-05 00:40:00,
2013-10-04 19:45:00,57.9,54.7,29.96,ESE,113,7.0,11.0,89,0.00,,,0.01,meteohub,2013-10-05 00:45:00,
2013-10-04 19:50:00,57.9,54.7,29.96,ESE,111,1.0,12.0,89,0.00,,,0.01,meteohub,2013-10-05 00:50:00,
2013-10-04 19:55:00,57.9,54.7,29.96,SE,144,4.0,15.0,89,0.00,,,0.01,meteohub,2013-10-05 00:55:00,
2013-10-04 20:00:00,57.9,54.7,29.96,ESE,117,4.0,15.0,89,0.00,,,0.01,meteohub,2013-10-05 01:00:00,
2013-10-04 20:05:00,57.9,55.0,29.95,East,92,3.0,15.0,90,0.00,,,0.01,meteohub,2013-10-05 01:05:00,
2013-10-04 20:10:00,57.7,54.9,29.94,ESE,123,0.0,12.0,90,0.00,,,0.01,meteohub,2013-10-05 01:10:00,
2013-10-04 20:15:00,57.7,54.9,29.94,East,88,6.0,12.0,90,0.00,,,0.01,meteohub,2013-10-05 01:15:00,
2013-10-04 20:20:00,57.7,54.9,29.94,SE,141,0.0,12.0,90,0.00,,,0.01,meteohub,2013-10-05 01:20:00,
2013-10-04 20:25:00,57.7,54.9,29.94,ESE,113,3.0,14.0,90,0.00,,,0.01,meteohub,2013-10-05 01:25:00,
2013-10-04 20:30:00,57.6,54.7,29.95,ESE,111,2.0,14.0,90,0.00,,,0.01,meteohub,2013-10-05 01:30:00,
2013-10-04 20:35:00,57.6,54.7,29.95,ESE,105,7.0,14.0,90,0.00,,,0.01,meteohub,2013-10-05 01:35:00,
2013-10-04 20:40:00,57.6,54.7,29.94,East,79,4.0,11.0,90,0.01,,,0.02,meteohub,2013-10-05 01:40:00,
2013-10-04 20:45:00,57.6,54.7,29.92,East,91,6.0,13.0,90,0.05,,,0.05,meteohub,2013-10-05 01:45:00,
2013-10-04 20:51:00,57.4,54.9,29.92,SE,134,6.0,13.0,91,0.08,,,0.09,meteohub,2013-10-05 01:51:00,
2013-10-04 20:55:00,57.4,54.9,29.91,East,87,7.0,17.0,91,0.14,,,0.15,meteohub,2013-10-05 01:55:00,
2013-10-04 21:00:00,57.2,54.7,29.91,ESE,119,1.0,17.0,91,0.20,,,0.21,meteohub,2013-10-05 02:00:00,
2013-10-04 21:06:00,57.2,54.7,29.90,ESE,117,10.0,17.0,91,0.21,,,0.22,meteohub,2013-10-05 02:06:00,
2013-10-04 21:11:00,57.2,54.7,29.90,ESE,110,10.0,16.0,91,0.21,,,0.22,meteohub,2013-10-05 02:11:00,
2013-10-04 21:16:00,57.2,54.7,29.90,ESE,109,9.0,16.0,91,0.22,,,0.23,meteohub,2013-10-05 02:16:00,
2013-10-04 21:21:00,57.2,54.7,29.90,ESE,106,2.0,16.0,91,0.22,,,0.23,meteohub,2013-10-05 02:21:00,
2013-10-04 21:26:00,57.2,54.7,29.90,ESE,109,3.0,14.0,91,0.22,,,0.23,meteohub,2013-10-05 02:26:00,
2013-10-04 21:31:00,57.2,54.7,29.89,ESE,111,13.0,14.0,91,0.22,,,0.23,meteohub,2013-10-05 02:31:00,
2013-10-04 21:36:00,57.4,54.9,29.91,SE,125,4.0,14.0,91,0.22,,,0.23,meteohub,2013-10-05 02:36:00,
2013-10-04 21:41:00,57.4,54.9,29.90,ESE,116,11.0,15.0,91,0.20,,,0.23,meteohub,2013-10-05 02:41:00,
2013-10-04 21:46:00,57.4,54.9,29.91,SE,135,6.0,15.0,91,0.17,,,0.23,meteohub,2013-10-05 02:46:00,
2013-10-04 21:51:00,57.4,54.9,29.91,SE,136,5.0,15.0,91,0.13,,,0.23,meteohub,2013-10-05 02:51:00,
2013-10-04 21:56:00,57.6,55.0,29.91,ESE,121,2.0,15.0,91,0.04,,,0.23,meteohub,2013-10-05 02:56:00,
2013-10-04 22:01:00,57.6,55.0,29.90,ESE,109,3.0,14.0,91,0.02,,,0.23,meteohub,2013-10-05 03:01:00,
2013-10-04 22:06:00,57.6,55.0,29.90,ESE,111,3.0,15.0,91,0.01,,,0.23,meteohub,2013-10-05 03:06:00,
2013-10-04 22:11:00,57.6,55.0,29.90,SSE,167,1.0,15.0,91,0.00,,,0.23,meteohub,2013-10-05 03:11:00,
2013-10-04 22:16:00,57.6,55.0,29.89,SE,130,4.0,15.0,91,0.00,,,0.23,meteohub,2013-10-05 03:16:00,
2013-10-04 22:21:00,57.6,55.0,29.89,ESE,110,3.0,15.0,91,0.00,,,0.23,meteohub,2013-10-05 03:21:00,
2013-10-04 22:26:00,57.6,55.0,29.87,ESE,122,9.0,15.0,91,0.00,,,0.23,meteohub,2013-10-05 03:26:00,
2013-10-04 22:31:00,57.6,55.0,29.87,ESE,123,3.0,15.0,91,0.00,,,0.23,meteohub,2013-10-05 03:31:00,
2013-10-04 22:36:00,57.6,55.0,29.88,SE,125,3.0,15.0,91,0.01,,,0.24,meteohub,2013-10-05 03:36:00,
2013-10-04 22:41:00,57.6,55.0,29.87,East,95,8.0,12.0,91,0.01,,,0.24,meteohub,2013-10-05 03:41:00,
2013-10-04 22:46:00,57.7,55.2,29.87,East,96,4.0,12.0,91,0.02,,,0.25,meteohub,2013-10-05 03:46:00,
2013-10-04 22:51:00,57.7,55.2,29.89,SSE,152,3.0,14.0,91,0.02,,,0.25,meteohub,2013-10-05 03:51:00,
2013-10-04 22:56:00,57.7,55.2,29.90,ESE,102,0.0,14.0,91,0.03,,,0.26,meteohub,2013-10-05 03:56:00,
2013-10-04 23:01:00,57.7,55.2,29.91,ESE,110,2.0,10.0,91,0.04,,,0.27,meteohub,2013-10-05 04:01:00,
2013-10-04 23:02:00,57.7,55.2,29.91,ESE,111,0.0,10.0,91,0.04,,,0.27,meteohub,2013-10-05 04:02:00,
2013-10-04 23:07:00,57.7,55.2,29.92,ESE,106,6.0,10.0,91,0.06,,,0.29,meteohub,2013-10-05 04:07:00,
2013-10-04 23:12:00,57.7,55.2,29.92,SE,142,4.0,9.0,91,0.07,,,0.30,meteohub,2013-10-05 04:12:00,
2013-10-04 23:17:00,57.7,55.2,29.92,SSE,163,6.0,9.0,91,0.15,,,0.38,meteohub,2013-10-05 04:17:00,
2013-10-04 23:22:00,57.7,55.2,29.92,SE,137,6.0,9.0,91,0.21,,,0.44,meteohub,2013-10-05 04:22:00,
2013-10-04 23:27:00,57.7,55.2,29.93,SE,132,1.0,9.0,91,0.21,,,0.44,meteohub,2013-10-05 04:27:00,
2013-10-04 23:32:00,57.9,55.2,29.92,ESE,119,3.0,10.0,91,0.24,,,0.47,meteohub,2013-10-05 04:32:00,
2013-10-04 23:37:00,57.7,55.2,29.89,East,96,5.0,11.0,91,0.25,,,0.49,meteohub,2013-10-05 04:37:00,
2013-10-04 23:42:00,57.7,55.2,29.86,South,178,3.0,13.0,91,0.26,,,0.50,meteohub,2013-10-05 04:42:00,
2013-10-04 23:47:00,57.7,55.2,29.87,South,186,9.0,14.0,91,0.28,,,0.53,meteohub,2013-10-05 04:47:00,
2013-10-04 23:52:00,57.7,55.2,29.86,South,182,4.0,16.0,91,0.29,,,0.54,meteohub,2013-10-05 04:52:00,
2013-10-04 23:57:00,57.7,55.2,29.85,SE,137,5.0,16.0,91,0.27,,,0.54,meteohub,2013-10-05 04:57:00,